Time;durP1;ratioP1;P1;durP2;ratioP2;P2;SDS_P1;SDS_P2;PMS_P1;PMS_P2;Temp;Humidity;BMP_temperature;BMP_pressure;BME280_temperature;BME280_humidity;BME280_pressure;Samples;Min_cycle;Max_cycle;Signal;HPM_P1;HPM_P2
2021/08/06 00:00:04;;;;;;;6.40;5.90;;;;;;;;;;2100137;28;20213;-51
2021/08/06 00:01:07;;;;;;;6.60;6.10;;;;;;;;;;2091933;28;20183;-54
2021/08/06 00:02:07;;;;;;;6.95;6.35;;;;;;;;;;2087705;28;20175;-49
2021/08/06 00:03:08;;;;;;;6.20;5.72;;;;;;;;;;2095778;28;20170;-51
2021/08/06 00:04:08;;;;;;;7.07;6.38;;;;;;;;;;2094111;28;20187;-49
2021/08/06 00:05:08;;;;;;;6.50;6.00;;;;;;;;;;2091812;28;20201;-51
2021/08/06 00:06:09;;;;;;;6.13;5.72;;;;;;;;;;2092715;28;20548;-55
2021/08/06 00:07:10;;;;;;;7.22;6.63;;;;;;;;;;2097854;28;20185;-50
2021/08/06 00:08:10;;;;;;;6.65;6.10;;;;;;;;;;2102775;28;20171;-51
2021/08/06 00:09:11;;;;;;;7.50;6.88;;;;;;;;;;2098703;28;20169;-57
2021/08/06 00:10:12;;;;;;;6.95;6.35;;;;;;;;;;2102562;28;20647;-50
2021/08/06 00:11:12;;;;;;;7.10;6.53;;;;;;;;;;2098392;28;20456;-54
2021/08/06 00:12:12;;;;;;;7.72;7.13;;;;;;;;;;2094355;28;20179;-53
2021/08/06 00:13:12;;;;;;;7.32;6.72;;;;;;;;;;2101107;28;20173;-54
2021/08/06 00:14:13;;;;;;;7.00;6.43;;;;;;;;;;2101673;28;20533;-52
2021/08/06 00:15:13;;;;;;;8.02;7.32;;;;;;;;;;2094137;28;20270;-49
2021/08/06 00:16:17;;;;;;;7.82;7.22;;;;;;;;;;2097436;28;20175;-50
2021/08/06 00:17:17;;;;;;;7.38;6.78;;;;;;;;;;2088020;28;20172;-51
2021/08/06 00:18:17;;;;;;;7.25;6.65;;;;;;;;;;2092917;28;20293;-55
2021/08/06 00:19:18;;;;;;;7.65;7.05;;;;;;;;;;2100729;28;20697;-57
2021/08/06 00:20:18;;;;;;;7.47;6.88;;;;;;;;;;2095879;28;20193;-58
2021/08/06 00:21:18;;;;;;;7.82;7.18;;;;;;;;;;2098189;28;20220;-58
2021/08/06 00:22:19;;;;;;;7.80;7.20;;;;;;;;;;2089003;28;20192;-57
2021/08/06 00:23:19;;;;;;;8.48;7.85;;;;;;;;;;2086765;28;20267;-50
2021/08/06 00:24:20;;;;;;;8.70;7.90;;;;;;;;;;2092214;28;20267;-50
2021/08/06 00:25:20;;;;;;;8.00;7.43;;;;;;;;;;2095321;28;20198;-51
2021/08/06 00:26:20;;;;;;;7.90;7.30;;;;;;;;;;2095992;28;20171;-53
2021/08/06 00:27:20;;;;;;;8.73;7.82;;;;;;;;;;2089189;28;20717;-53
2021/08/06 00:28:21;;;;;;;8.43;7.63;;;;;;;;;;2099190;28;20193;-54
2021/08/06 00:29:22;;;;;;;8.27;7.68;;;;;;;;;;2091488;28;20829;-54
2021/08/06 00:30:22;;;;;;;8.65;7.85;;;;;;;;;;2089011;28;20175;-56
2021/08/06 00:31:23;;;;;;;9.43;8.63;;;;;;;;;;2096021;28;20233;-56
2021/08/06 00:32:23;;;;;;;8.50;7.90;;;;;;;;;;2093824;28;20167;-51
2021/08/06 00:33:24;;;;;;;9.32;8.52;;;;;;;;;;2083188;28;20168;-52
2021/08/06 00:34:24;;;;;;;8.43;7.80;;;;;;;;;;2067734;28;20166;-54
2021/08/06 00:35:27;;;;;;;9.48;8.13;;;;;;;;;;2083913;28;20198;-52
2021/08/06 00:36:27;;;;;;;9.02;8.20;;;;;;;;;;2082164;28;20671;-52
2021/08/06 00:37:28;;;;;;;9.18;8.35;;;;;;;;;;2083562;28;20169;-50
2021/08/06 00:38:32;;;;;;;8.20;7.40;;;;;;;;;;2086436;28;20266;-50
2021/08/06 00:39:34;;;;;;;8.63;7.72;;;;;;;;;;2072724;28;20169;-52
2021/08/06 00:40:34;;;;;;;9.50;8.68;;;;;;;;;;2087010;28;20783;-53
2021/08/06 00:41:34;;;;;;;9.43;8.68;;;;;;;;;;2087776;28;20600;-52
2021/08/06 00:42:36;;;;;;;11.88;9.40;;;;;;;;;;2079076;28;20614;-52
2021/08/06 00:43:37;;;;;;;9.63;8.70;;;;;;;;;;2075324;28;20168;-53
2021/08/06 00:44:41;;;;;;;9.35;8.55;;;;;;;;;;2087964;28;20182;-56
2021/08/06 00:45:44;;;;;;;10.52;9.50;;;;;;;;;;2080402;28;20176;-53
2021/08/06 00:46:46;;;;;;;13.07;11.05;;;;;;;;;;2072542;28;20180;-53
2021/08/06 00:47:47;;;;;;;10.80;9.80;;;;;;;;;;2084515;28;20763;-50
2021/08/06 00:48:48;;;;;;;9.30;8.50;;;;;;;;;;2087616;28;20258;-54
2021/08/06 00:49:48;;;;;;;10.93;9.85;;;;;;;;;;2067886;28;20256;-51
2021/08/06 00:50:48;;;;;;;10.73;9.80;;;;;;;;;;2087524;28;20526;-52
2021/08/06 00:51:50;;;;;;;10.82;9.73;;;;;;;;;;2077149;28;20164;-55
2021/08/06 00:52:52;;;;;;;10.55;9.63;;;;;;;;;;2085582;28;20176;-50
2021/08/06 00:53:54;;;;;;;9.75;8.95;;;;;;;;;;2087641;28;20176;-54
2021/08/06 00:55:00;;;;;;;10.48;9.48;;;;;;;;;;2091509;28;20698;-50
2021/08/06 00:56:06;;;;;;;10.00;9.10;;;;;;;;;;2094595;28;20263;-50
2021/08/06 00:57:12;;;;;;;10.73;9.32;;;;;;;;;;2084309;28;20217;-54
2021/08/06 00:58:14;;;;;;;9.75;8.75;;;;;;;;;;2082761;28;20169;-50
2021/08/06 00:59:16;;;;;;;9.73;9.00;;;;;;;;;;2082658;28;20254;-52
2021/08/06 01:00:17;;;;;;;9.65;8.85;;;;;;;;;;2083018;28;20183;-50
2021/08/06 01:01:20;;;;;;;9.23;8.43;;;;;;;;;;2072586;28;20171;-53
2021/08/06 01:02:38;;;;;;;9.75;8.82;;;;;;;;;;2077917;28;20263;-49
2021/08/06 01:03:52;;;;;;;8.48;7.75;;;;;;;;;;2082712;28;20172;-52
2021/08/06 01:04:55;;;;;;;9.15;8.25;;;;;;;;;;2069670;28;20793;-54
2021/08/06 01:06:11;;;;;;;9.55;8.55;;;;;;;;;;2080331;28;20203;-50
2021/08/06 01:07:22;;;;;;;8.50;7.72;;;;;;;;;;2088663;28;20246;-50
2021/08/06 01:08:31;;;;;;;9.77;8.88;;;;;;;;;;2093391;28;20224;-50
2021/08/06 01:09:40;;;;;;;14.23;12.38;;;;;;;;;;2090402;28;20184;-54
2021/08/06 01:10:48;;;;;;;10.43;9.43;;;;;;;;;;2098543;28;20683;-54
2021/08/06 01:11:54;;;;;;;9.27;8.45;;;;;;;;;;2089429;28;20167;-53
2021/08/06 01:12:56;;;;;;;9.60;8.70;;;;;;;;;;2097065;28;20182;-50
2021/08/06 01:13:58;;;;;;;8.90;8.02;;;;;;;;;;2090739;28;20168;-53
2021/08/06 01:15:01;;;;;;;9.10;8.20;;;;;;;;;;2083417;28;20283;-53
2021/08/06 01:16:06;;;;;;;8.88;8.02;;;;;;;;;;2078238;28;20184;-53
2021/08/06 01:17:13;;;;;;;8.50;7.68;;;;;;;;;;2081494;28;20310;-52
2021/08/06 01:18:15;;;;;;;8.63;7.93;;;;;;;;;;2081754;28;20855;-54
2021/08/06 01:19:38;;;;;;;7.93;7.22;;;;;;;;;;2082850;28;20711;-55
2021/08/06 01:20:42;;;;;;;7.10;6.50;;;;;;;;;;2097546;28;20155;-50
2021/08/06 01:21:45;;;;;;;7.97;7.18;;;;;;;;;;2080641;28;20204;-51
2021/08/06 01:23:12;;;;;;;7.78;7.18;;;;;;;;;;2080611;28;20254;-52
2021/08/06 01:24:25;;;;;;;7.95;7.35;;;;;;;;;;2089081;28;20163;-54
2021/08/06 01:25:27;;;;;;;7.25;6.60;;;;;;;;;;2083367;28;20696;-53
2021/08/06 01:26:29;;;;;;;7.30;6.68;;;;;;;;;;2092599;28;20175;-53
2021/08/06 01:27:35;;;;;;;7.78;7.18;;;;;;;;;;2089286;28;20170;-54
2021/08/06 01:28:43;;;;;;;7.93;7.30;;;;;;;;;;2091191;28;20172;-49
2021/08/06 01:29:44;;;;;;;7.90;7.20;;;;;;;;;;2090797;28;20547;-51
2021/08/06 01:30:44;;;;;;;7.53;6.95;;;;;;;;;;2081098;28;20203;-56
2021/08/06 01:31:46;;;;;;;7.78;7.15;;;;;;;;;;2068799;28;20182;-52
2021/08/06 01:32:53;;;;;;;9.32;8.18;;;;;;;;;;2079243;28;20184;-49
2021/08/06 01:33:54;;;;;;;8.32;7.57;;;;;;;;;;2096757;28;20171;-48
2021/08/06 01:34:59;;;;;;;9.27;8.32;;;;;;;;;;2097413;28;20198;-55
2021/08/06 01:36:00;;;;;;;8.75;7.95;;;;;;;;;;2098378;28;20626;-51
2021/08/06 01:37:02;;;;;;;7.57;6.97;;;;;;;;;;2084228;28;20213;-50
2021/08/06 01:38:15;;;;;;;8.25;7.55;;;;;;;;;;2087110;28;20187;-52
2021/08/06 01:39:16;;;;;;;8.73;7.85;;;;;;;;;;2076767;28;20247;-50
2021/08/06 01:40:20;;;;;;;8.82;7.85;;;;;;;;;;2084380;28;20169;-54
2021/08/06 01:41:46;;;;;;;8.18;7.47;;;;;;;;;;2081396;28;20656;-52
2021/08/06 01:42:52;;;;;;;8.52;7.82;;;;;;;;;;2082363;28;20191;-52
2021/08/06 01:43:55;;;;;;;8.38;7.57;;;;;;;;;;2088958;28;20180;-51
2021/08/06 01:44:57;;;;;;;8.20;7.30;;;;;;;;;;2090236;28;20194;-53
2021/08/06 01:46:06;;;;;;;8.23;7.50;;;;;;;;;;2096096;28;20167;-52
2021/08/06 01:47:10;;;;;;;9.43;7.55;;;;;;;;;;2092038;28;20170;-52
2021/08/06 01:48:16;;;;;;;8.15;7.43;;;;;;;;;;2088917;28;20257;-50
2021/08/06 01:49:20;;;;;;;8.00;7.38;;;;;;;;;;2085272;28;20172;-51
2021/08/06 01:50:25;;;;;;;8.23;7.43;;;;;;;;;;2081505;28;20196;-52
2021/08/06 01:51:30;;;;;;;8.02;7.32;;;;;;;;;;2082172;28;20230;-51
2021/08/06 01:52:31;;;;;;;7.97;7.38;;;;;;;;;;2086999;28;20168;-49
2021/08/06 01:53:39;;;;;;;8.30;7.53;;;;;;;;;;2089471;28;20199;-56
2021/08/06 01:54:42;;;;;;;8.40;7.78;;;;;;;;;;2089372;28;20262;-50
2021/08/06 01:55:50;;;;;;;7.70;7.03;;;;;;;;;;2075202;28;20264;-60
2021/08/06 01:56:52;;;;;;;7.05;6.55;;;;;;;;;;2082071;28;20165;-52
2021/08/06 01:57:52;;;;;;;7.55;6.95;;;;;;;;;;2088980;28;20179;-53
2021/08/06 01:58:59;;;;;;;6.85;6.32;;;;;;;;;;2076220;28;20177;-52
2021/08/06 02:00:10;;;;;;;7.75;7.03;;;;;;;;;;2080127;28;20177;-53
2021/08/06 02:01:18;;;;;;;6.63;5.90;;;;;;;;;;2089718;28;20254;-48
2021/08/06 02:02:36;;;;;;;8.02;7.28;;;;;;;;;;2089905;28;20183;-54
2021/08/06 02:03:39;;;;;;;8.25;7.53;;;;;;;;;;2089677;28;20259;-52
2021/08/06 02:04:52;;;;;;;7.18;6.68;;;;;;;;;;2085230;28;20183;-51
2021/08/06 02:05:55;;;;;;;7.45;6.75;;;;;;;;;;2097184;28;20182;-51
2021/08/06 02:06:55;;;;;;;8.30;7.70;;;;;;;;;;2081359;28;20218;-50
2021/08/06 02:08:00;;;;;;;10.80;7.50;;;;;;;;;;2092164;28;20182;-49
2021/08/06 02:09:01;;;;;;;7.30;6.70;;;;;;;;;;2096062;28;20171;-52
2021/08/06 02:10:07;;;;;;;7.70;7.00;;;;;;;;;;2085133;28;20251;-52
2021/08/06 02:11:11;;;;;;;7.30;6.70;;;;;;;;;;2093098;28;20236;-54
2021/08/06 02:12:13;;;;;;;8.50;7.80;;;;;;;;;;2085213;28;20402;-51
2021/08/06 02:13:28;;;;;;;8.10;7.35;;;;;;;;;;2087802;28;20155;-49
2021/08/06 02:14:28;;;;;;;8.15;7.45;;;;;;;;;;2083755;28;20190;-50
2021/08/06 02:15:29;;;;;;;8.23;7.53;;;;;;;;;;2095536;28;20220;-57
2021/08/06 02:16:30;;;;;;;8.35;7.60;;;;;;;;;;2091749;28;20698;-56
2021/08/06 02:17:34;;;;;;;8.10;7.47;;;;;;;;;;2084249;28;20573;-49
2021/08/06 02:18:51;;;;;;;9.23;8.15;;;;;;;;;;2076990;28;20184;-48
2021/08/06 02:19:51;;;;;;;8.77;7.97;;;;;;;;;;2075193;28;20550;-51
2021/08/06 02:20:55;;;;;;;8.05;7.45;;;;;;;;;;2089122;28;20176;-52
2021/08/06 02:21:58;;;;;;;8.55;7.85;;;;;;;;;;2092937;28;20258;-50
2021/08/06 02:23:00;;;;;;;9.20;8.40;;;;;;;;;;2091853;28;20171;-55
2021/08/06 02:24:05;;;;;;;8.10;7.40;;;;;;;;;;2088378;28;20287;-53
2021/08/06 02:25:05;;;;;;;8.27;7.63;;;;;;;;;;2083485;28;20200;-51
2021/08/06 02:26:06;;;;;;;8.32;7.55;;;;;;;;;;2090089;28;20199;-52
2021/08/06 02:27:08;;;;;;;8.13;7.43;;;;;;;;;;2081918;28;20250;-52
2021/08/06 02:28:12;;;;;;;8.15;7.35;;;;;;;;;;2078961;28;20172;-52
2021/08/06 02:29:17;;;;;;;8.52;7.72;;;;;;;;;;2081238;28;20175;-54
2021/08/06 02:30:21;;;;;;;9.55;8.00;;;;;;;;;;2085127;28;20170;-53
2021/08/06 02:31:25;;;;;;;8.10;7.43;;;;;;;;;;2082153;28;20274;-49
2021/08/06 02:32:28;;;;;;;8.25;7.55;;;;;;;;;;2095527;28;20189;-52
2021/08/06 02:33:30;;;;;;;7.78;7.10;;;;;;;;;;2095673;28;20183;-53
2021/08/06 02:34:32;;;;;;;8.07;7.28;;;;;;;;;;2082787;28;20164;-50
2021/08/06 02:35:32;;;;;;;8.63;7.82;;;;;;;;;;2086450;28;20682;-55
2021/08/06 02:36:33;;;;;;;7.72;7.13;;;;;;;;;;2087649;28;20186;-54
2021/08/06 02:37:37;;;;;;;7.28;6.68;;;;;;;;;;2081298;28;20165;-54
2021/08/06 02:38:38;;;;;;;7.95;7.35;;;;;;;;;;2073905;28;20177;-51
2021/08/06 02:39:39;;;;;;;8.60;7.80;;;;;;;;;;2089421;28;20184;-53
2021/08/06 02:40:39;;;;;;;8.60;7.85;;;;;;;;;;2089128;28;20178;-51
2021/08/06 02:41:39;;;;;;;8.25;7.55;;;;;;;;;;2078398;28;20215;-51
2021/08/06 02:42:40;;;;;;;7.93;7.32;;;;;;;;;;2088761;28;20710;-55
2021/08/06 02:43:40;;;;;;;8.45;7.75;;;;;;;;;;2104103;28;20170;-50
2021/08/06 02:44:41;;;;;;;8.30;7.60;;;;;;;;;;2089385;28;20168;-54
2021/08/06 02:45:42;;;;;;;8.13;7.32;;;;;;;;;;2096846;28;20216;-54
2021/08/06 02:46:43;;;;;;;8.35;7.55;;;;;;;;;;2087421;28;20172;-51
2021/08/06 02:47:43;;;;;;;7.90;7.30;;;;;;;;;;2093785;28;20682;-52
2021/08/06 02:48:43;;;;;;;8.30;7.55;;;;;;;;;;2099618;28;20227;-55
2021/08/06 02:49:43;;;;;;;7.38;6.78;;;;;;;;;;2093121;28;20175;-53
2021/08/06 02:50:45;;;;;;;8.10;7.28;;;;;;;;;;2064561;28;20182;-55
2021/08/06 02:51:46;;;;;;;8.70;7.95;;;;;;;;;;2073372;28;20169;-50
2021/08/06 02:52:46;;;;;;;7.47;6.88;;;;;;;;;;2080791;28;20693;-55
2021/08/06 02:53:46;;;;;;;7.97;7.28;;;;;;;;;;2073938;28;20583;-51
2021/08/06 02:54:47;;;;;;;8.52;7.65;;;;;;;;;;2085373;28;20620;-54
2021/08/06 02:55:47;;;;;;;7.97;7.30;;;;;;;;;;2097301;28;20174;-54
2021/08/06 02:56:47;;;;;;;8.15;7.53;;;;;;;;;;2088272;28;20179;-52
2021/08/06 02:57:48;;;;;;;7.00;6.50;;;;;;;;;;2088746;28;20641;-53
2021/08/06 02:58:48;;;;;;;9.15;7.00;;;;;;;;;;2077207;28;20177;-51
2021/08/06 02:59:51;;;;;;;8.02;7.32;;;;;;;;;;2080417;28;20172;-55
2021/08/06 03:00:52;;;;;;;8.07;7.38;;;;;;;;;;2088440;28;20273;-56
2021/08/06 03:01:53;;;;;;;8.43;7.57;;;;;;;;;;2075149;28;20169;-53
2021/08/06 03:02:53;;;;;;;7.93;7.22;;;;;;;;;;2080912;28;20633;-49
2021/08/06 03:03:54;;;;;;;8.27;7.57;;;;;;;;;;2088314;28;20168;-57
2021/08/06 03:04:55;;;;;;;8.40;7.60;;;;;;;;;;2084221;28;20185;-53
2021/08/06 03:05:56;;;;;;;8.07;7.38;;;;;;;;;;2079047;28;20160;-51
2021/08/06 03:06:56;;;;;;;9.15;7.47;;;;;;;;;;2079715;28;20606;-51
2021/08/06 03:07:57;;;;;;;8.30;7.35;;;;;;;;;;2080689;28;20161;-53
2021/08/06 03:08:59;;;;;;;8.43;7.65;;;;;;;;;;2080328;28;20168;-52
2021/08/06 03:10:00;;;;;;;8.20;7.40;;;;;;;;;;2088191;28;20698;-57
2021/08/06 03:11:00;;;;;;;9.05;8.25;;;;;;;;;;2086347;28;20282;-55
2021/08/06 03:12:04;;;;;;;8.35;7.65;;;;;;;;;;2085743;28;20189;-59
2021/08/06 03:13:09;;;;;;;7.95;7.15;;;;;;;;;;2096242;28;20250;-57
2021/08/06 03:14:10;;;;;;;8.05;7.35;;;;;;;;;;2094918;28;20571;-57
2021/08/06 03:15:14;;;;;;;10.07;7.80;;;;;;;;;;2099590;28;20633;-52
2021/08/06 03:16:15;;;;;;;8.10;7.30;;;;;;;;;;2087244;28;20180;-49
2021/08/06 03:17:16;;;;;;;7.85;7.13;;;;;;;;;;2089424;28;20176;-49
2021/08/06 03:18:19;;;;;;;7.55;6.95;;;;;;;;;;2094142;28;20162;-53
2021/08/06 03:19:19;;;;;;;8.32;7.53;;;;;;;;;;2089329;28;20171;-54
2021/08/06 03:20:22;;;;;;;8.23;7.53;;;;;;;;;;2080008;28;20172;-50
2021/08/06 03:21:25;;;;;;;8.20;7.40;;;;;;;;;;2089358;28;20167;-55
2021/08/06 03:22:26;;;;;;;7.78;7.18;;;;;;;;;;2094766;28;20182;-54
2021/08/06 03:23:27;;;;;;;7.80;7.18;;;;;;;;;;2073353;28;20169;-54
2021/08/06 03:24:28;;;;;;;8.38;7.70;;;;;;;;;;2085856;28;20221;-52
2021/08/06 03:25:28;;;;;;;8.80;8.10;;;;;;;;;;2087336;28;20202;-55
2021/08/06 03:26:30;;;;;;;8.57;7.75;;;;;;;;;;2093556;28;20666;-52
2021/08/06 03:27:31;;;;;;;8.40;7.70;;;;;;;;;;2089243;28;20167;-53
2021/08/06 03:28:32;;;;;;;7.95;7.25;;;;;;;;;;2086700;28;20175;-52
2021/08/06 03:29:32;;;;;;;9.57;8.02;;;;;;;;;;2095591;28;20174;-52
2021/08/06 03:30:33;;;;;;;8.70;7.93;;;;;;;;;;2090572;28;20562;-51
2021/08/06 03:31:35;;;;;;;7.55;6.80;;;;;;;;;;2082874;28;20314;-51
2021/08/06 03:32:36;;;;;;;7.75;7.05;;;;;;;;;;2078062;28;20674;-54
2021/08/06 03:33:37;;;;;;;8.98;8.13;;;;;;;;;;2081424;28;20210;-49
2021/08/06 03:34:40;;;;;;;9.73;8.80;;;;;;;;;;2089282;28;20663;-54
2021/08/06 03:35:41;;;;;;;8.32;7.72;;;;;;;;;;2081114;28;20168;-56
2021/08/06 03:36:42;;;;;;;9.07;7.97;;;;;;;;;;2072782;28;20176;-54
2021/08/06 03:37:43;;;;;;;9.48;8.57;;;;;;;;;;2072732;28;20212;-56
2021/08/06 03:38:43;;;;;;;9.05;8.25;;;;;;;;;;2074094;28;20776;-53
2021/08/06 03:39:44;;;;;;;9.30;8.40;;;;;;;;;;2080976;28;20189;-51
2021/08/06 03:40:44;;;;;;;9.38;8.48;;;;;;;;;;2081190;28;20172;-52
2021/08/06 03:41:45;;;;;;;8.98;8.18;;;;;;;;;;2082853;28;20199;-52
2021/08/06 03:42:45;;;;;;;9.30;8.40;;;;;;;;;;2080904;28;20556;-54
2021/08/06 03:43:46;;;;;;;9.20;8.40;;;;;;;;;;2089104;28;20172;-49
2021/08/06 03:44:46;;;;;;;9.23;8.32;;;;;;;;;;2078082;28;20251;-50
2021/08/06 03:45:49;;;;;;;9.07;8.23;;;;;;;;;;2072962;28;20789;-55
2021/08/06 03:46:52;;;;;;;9.35;8.00;;;;;;;;;;2073082;28;20184;-51
2021/08/06 03:47:54;;;;;;;8.65;7.75;;;;;;;;;;2072606;28;20177;-53
2021/08/06 03:48:54;;;;;;;8.20;7.60;;;;;;;;;;2072890;28;20176;-51
2021/08/06 03:49:56;;;;;;;9.15;8.15;;;;;;;;;;2076343;28;20629;-52
2021/08/06 03:50:56;;;;;;;9.50;8.60;;;;;;;;;;2080536;28;20176;-50
2021/08/06 03:51:57;;;;;;;10.10;9.20;;;;;;;;;;2071922;28;20263;-51
2021/08/06 03:52:59;;;;;;;9.65;8.77;;;;;;;;;;2088937;28;20172;-54
2021/08/06 03:53:59;;;;;;;9.63;8.73;;;;;;;;;;2088805;28;20276;-54
2021/08/06 03:55:00;;;;;;;9.85;8.95;;;;;;;;;;2081909;28;20216;-51
2021/08/06 03:56:00;;;;;;;9.35;8.55;;;;;;;;;;2076072;28;20575;-55
2021/08/06 03:57:01;;;;;;;9.15;8.30;;;;;;;;;;2085122;28;20255;-49
2021/08/06 03:58:02;;;;;;;11.00;9.40;;;;;;;;;;2089331;28;20199;-52
2021/08/06 03:59:03;;;;;;;11.20;9.90;;;;;;;;;;2083885;28;20176;-54
2021/08/06 04:00:04;;;;;;;9.43;8.52;;;;;;;;;;2085865;28;20703;-55
2021/08/06 04:01:16;;;;;;;9.60;8.75;;;;;;;;;;2094144;28;20376;-53
2021/08/06 04:02:17;;;;;;;8.70;7.90;;;;;;;;;;2102106;28;20204;-51
2021/08/06 04:03:17;;;;;;;9.25;8.45;;;;;;;;;;2092175;28;20168;-49
2021/08/06 04:04:18;;;;;;;9.70;8.73;;;;;;;;;;2084327;28;20164;-55
2021/08/06 04:05:19;;;;;;;8.10;7.50;;;;;;;;;;2106489;22;20241;-60
2021/08/06 04:06:19;;;;;;;9.15;8.25;;;;;;;;;;2085803;28;20286;-57
2021/08/06 04:07:19;;;;;;;9.25;8.15;;;;;;;;;;2086114;28;20226;-58
2021/08/06 04:08:20;;;;;;;8.63;7.93;;;;;;;;;;2083359;28;20184;-55
2021/08/06 04:09:26;;;;;;;10.10;7.93;;;;;;;;;;2086459;28;20194;-56
2021/08/06 04:10:26;;;;;;;8.27;7.28;;;;;;;;;;2096548;28;20191;-56
2021/08/06 04:11:27;;;;;;;8.27;7.57;;;;;;;;;;2087786;28;20758;-54
2021/08/06 04:12:28;;;;;;;8.20;7.60;;;;;;;;;;2078350;28;20167;-54
2021/08/06 04:13:28;;;;;;;8.32;7.53;;;;;;;;;;2088703;28;20171;-54
2021/08/06 04:14:29;;;;;;;8.05;7.40;;;;;;;;;;2087885;28;20175;-54
2021/08/06 04:15:29;;;;;;;7.97;7.28;;;;;;;;;;2096719;28;20183;-58
2021/08/06 04:16:29;;;;;;;8.63;7.90;;;;;;;;;;2097308;28;20175;-55
2021/08/06 04:17:30;;;;;;;8.82;7.95;;;;;;;;;;2097336;28;20218;-54
2021/08/06 04:18:30;;;;;;;8.32;7.72;;;;;;;;;;2088811;28;20181;-52
2021/08/06 04:19:30;;;;;;;8.88;8.07;;;;;;;;;;2080894;28;20164;-52
2021/08/06 04:20:30;;;;;;;8.48;7.68;;;;;;;;;;2090028;28;20180;-55
2021/08/06 04:21:31;;;;;;;9.20;8.35;;;;;;;;;;2096784;28;20204;-55
2021/08/06 04:22:31;;;;;;;8.45;7.65;;;;;;;;;;2090163;28;20576;-57
2021/08/06 04:23:31;;;;;;;9.85;8.95;;;;;;;;;;2098115;28;20671;-54
2021/08/06 04:24:31;;;;;;;8.55;7.82;;;;;;;;;;2088666;28;20329;-56
2021/08/06 04:25:32;;;;;;;8.88;8.07;;;;;;;;;;2081123;28;20282;-53
2021/08/06 04:26:32;;;;;;;8.73;8.02;;;;;;;;;;2088728;28;20207;-55
2021/08/06 04:27:33;;;;;;;9.65;8.77;;;;;;;;;;2089221;28;20179;-56
2021/08/06 04:28:34;;;;;;;8.68;7.88;;;;;;;;;;2089659;28;20171;-56
2021/08/06 04:29:35;;;;;;;8.07;7.38;;;;;;;;;;2089546;28;20175;-56
2021/08/06 04:30:35;;;;;;;8.10;7.38;;;;;;;;;;2074122;28;20176;-60
2021/08/06 04:31:36;;;;;;;9.23;8.43;;;;;;;;;;2087296;28;20218;-56
2021/08/06 04:32:36;;;;;;;8.50;7.75;;;;;;;;;;2096189;28;20655;-57
2021/08/06 04:33:36;;;;;;;8.85;8.15;;;;;;;;;;2097458;28;20159;-55
2021/08/06 04:34:37;;;;;;;10.00;7.68;;;;;;;;;;2087812;28;20171;-56
2021/08/06 04:35:37;;;;;;;8.30;7.50;;;;;;;;;;2080013;28;20192;-55
2021/08/06 04:36:37;;;;;;;8.50;7.72;;;;;;;;;;2095235;28;20209;-60
2021/08/06 04:37:50;;;;;;;8.20;7.50;;;;;;;;;;2096551;28;20671;-59
2021/08/06 04:38:51;;;;;;;8.55;7.57;;;;;;;;;;2088950;28;20773;-56
2021/08/06 04:39:52;;;;;;;8.45;7.57;;;;;;;;;;2087694;28;20266;-55
2021/08/06 04:40:53;;;;;;;8.02;7.22;;;;;;;;;;2095813;28;20163;-56
2021/08/06 04:41:53;;;;;;;9.32;8.43;;;;;;;;;;2080629;28;20279;-56
2021/08/06 04:42:53;;;;;;;8.05;7.22;;;;;;;;;;2081280;28;20198;-57
2021/08/06 04:43:54;;;;;;;7.80;7.07;;;;;;;;;;2083490;28;20210;-54
2021/08/06 04:44:55;;;;;;;8.05;7.35;;;;;;;;;;2078613;28;20176;-55
2021/08/06 04:45:55;;;;;;;7.45;6.75;;;;;;;;;;2081600;28;20200;-57
2021/08/06 04:46:56;;;;;;;7.90;7.20;;;;;;;;;;2086355;28;20160;-56
2021/08/06 04:48:00;;;;;;;9.27;7.20;;;;;;;;;;2088908;28;20271;-56
2021/08/06 04:49:01;;;;;;;8.30;7.57;;;;;;;;;;2089904;28;20163;-59
2021/08/06 04:50:02;;;;;;;8.77;7.93;;;;;;;;;;2096765;28;20174;-56
2021/08/06 04:51:03;;;;;;;11.90;8.43;;;;;;;;;;2094386;28;20203;-58
2021/08/06 04:52:04;;;;;;;8.77;7.80;;;;;;;;;;2083712;28;20188;-55
2021/08/06 04:53:04;;;;;;;8.38;7.55;;;;;;;;;;2093512;28;20600;-54
2021/08/06 04:54:07;;;;;;;8.45;7.65;;;;;;;;;;2095902;28;20186;-56
2021/08/06 04:55:08;;;;;;;11.45;8.27;;;;;;;;;;2088522;28;20222;-56
2021/08/06 04:56:09;;;;;;;8.95;8.15;;;;;;;;;;2080488;28;20168;-58
2021/08/06 04:57:09;;;;;;;8.52;7.38;;;;;;;;;;2093655;28;20177;-57
2021/08/06 04:58:11;;;;;;;8.20;7.40;;;;;;;;;;2088909;28;20174;-57
2021/08/06 04:59:12;;;;;;;7.85;7.05;;;;;;;;;;2088825;28;20314;-58
2021/08/06 05:00:12;;;;;;;7.78;7.10;;;;;;;;;;2087315;28;20241;-57
2021/08/06 05:01:13;;;;;;;7.47;6.78;;;;;;;;;;2084675;28;20170;-59
2021/08/06 05:02:13;;;;;;;7.50;6.90;;;;;;;;;;2081185;28;20177;-57
2021/08/06 05:03:13;;;;;;;9.23;6.78;;;;;;;;;;2090046;28;20172;-57
2021/08/06 05:04:19;;;;;;;7.57;6.93;;;;;;;;;;2081878;28;20286;-54
2021/08/06 05:05:20;;;;;;;8.73;7.93;;;;;;;;;;2081863;28;20180;-56
2021/08/06 05:06:20;;;;;;;8.65;7.22;;;;;;;;;;2090186;28;20184;-50
2021/08/06 05:07:20;;;;;;;8.25;7.40;;;;;;;;;;2089841;28;20183;-53
2021/08/06 05:08:21;;;;;;;8.43;7.72;;;;;;;;;;2089723;28;20164;-52
2021/08/06 05:09:22;;;;;;;8.60;7.70;;;;;;;;;;2089700;28;20215;-53
2021/08/06 05:10:23;;;;;;;7.55;6.90;;;;;;;;;;2098002;28;20197;-57
2021/08/06 05:11:23;;;;;;;7.75;7.00;;;;;;;;;;2096877;28;20237;-54
2021/08/06 05:12:23;;;;;;;8.57;7.68;;;;;;;;;;2088712;28;20629;-55
2021/08/06 05:13:24;;;;;;;7.65;7.00;;;;;;;;;;2089086;28;20159;-54
2021/08/06 05:14:24;;;;;;;7.57;6.95;;;;;;;;;;2094385;28;20278;-55
2021/08/06 05:15:25;;;;;;;7.43;6.72;;;;;;;;;;2087634;28;20678;-60
2021/08/06 05:16:28;;;;;;;8.63;7.90;;;;;;;;;;2085785;28;20307;-54
2021/08/06 05:17:29;;;;;;;8.98;7.45;;;;;;;;;;2084430;28;20215;-50
2021/08/06 05:18:29;;;;;;;10.18;9.23;;;;;;;;;;2093001;28;20628;-51
2021/08/06 05:19:29;;;;;;;9.45;8.55;;;;;;;;;;2096113;28;20175;-55
2021/08/06 05:20:30;;;;;;;8.23;7.45;;;;;;;;;;2089335;28;20179;-54
2021/08/06 05:21:30;;;;;;;14.80;12.32;;;;;;;;;;2087326;28;20195;-56
2021/08/06 05:22:31;;;;;;;12.52;9.85;;;;;;;;;;2081902;28;20310;-54
2021/08/06 05:23:32;;;;;;;15.13;13.65;;;;;;;;;;2079706;28;20315;-56
2021/08/06 05:24:32;;;;;;;23.42;20.25;;;;;;;;;;2084075;28;20222;-54
2021/08/06 05:25:32;;;;;;;22.13;19.02;;;;;;;;;;2096089;28;20206;-55
2021/08/06 05:26:32;;;;;;;8.27;7.47;;;;;;;;;;2093655;28;20183;-52
2021/08/06 05:27:33;;;;;;;8.73;7.82;;;;;;;;;;2092506;28;20631;-60
2021/08/06 05:28:33;;;;;;;9.27;7.85;;;;;;;;;;2093438;28;20674;-53
2021/08/06 05:29:33;;;;;;;7.78;7.10;;;;;;;;;;2089572;28;20171;-57
2021/08/06 05:30:34;;;;;;;9.90;8.93;;;;;;;;;;2090256;28;20310;-54
2021/08/06 05:31:34;;;;;;;9.32;7.13;;;;;;;;;;2089579;28;20202;-52
2021/08/06 05:32:34;;;;;;;8.00;7.40;;;;;;;;;;2089498;28;20167;-52
2021/08/06 05:33:34;;;;;;;7.95;6.95;;;;;;;;;;2096812;28;20649;-55
2021/08/06 05:34:35;;;;;;;7.65;6.82;;;;;;;;;;2080538;28;20660;-53
2021/08/06 05:35:35;;;;;;;8.52;7.72;;;;;;;;;;2089096;28;20184;-54
2021/08/06 05:36:37;;;;;;;9.57;7.10;;;;;;;;;;2095656;28;20224;-53
2021/08/06 05:37:38;;;;;;;6.80;6.20;;;;;;;;;;2087646;28;20729;-54
2021/08/06 05:38:38;;;;;;;6.82;6.22;;;;;;;;;;2086413;28;20195;-48
2021/08/06 05:39:40;;;;;;;7.95;7.25;;;;;;;;;;2088353;28;20167;-48
2021/08/06 05:40:43;;;;;;;6.57;5.95;;;;;;;;;;2089891;28;20176;-48
2021/08/06 05:41:46;;;;;;;7.10;6.05;;;;;;;;;;2085392;28;20168;-55
2021/08/06 05:42:50;;;;;;;6.28;5.68;;;;;;;;;;2082177;28;20218;-55
2021/08/06 05:43:54;;;;;;;7.07;6.47;;;;;;;;;;2097835;28;20187;-55
2021/08/06 05:44:55;;;;;;;6.15;5.65;;;;;;;;;;2090773;28;20561;-56
2021/08/06 05:45:56;;;;;;;6.93;6.25;;;;;;;;;;2088979;28;20203;-51
2021/08/06 05:46:56;;;;;;;7.15;5.88;;;;;;;;;;2089299;28;20171;-54
2021/08/06 05:47:57;;;;;;;6.97;6.47;;;;;;;;;;2087950;28;20282;-57
2021/08/06 05:49:01;;;;;;;6.60;6.10;;;;;;;;;;2083364;28;20176;-54
2021/08/06 05:50:02;;;;;;;6.43;5.93;;;;;;;;;;2089253;28;20264;-56
2021/08/06 05:51:02;;;;;;;7.43;5.63;;;;;;;;;;2088314;28;20679;-54
2021/08/06 05:52:04;;;;;;;6.20;4.95;;;;;;;;;;2095520;28;20178;-58
2021/08/06 05:53:04;;;;;;;6.63;6.13;;;;;;;;;;2093709;28;20178;-57
2021/08/06 05:54:05;;;;;;;6.82;6.10;;;;;;;;;;2088932;28;20183;-57
2021/08/06 05:55:07;;;;;;;6.50;5.68;;;;;;;;;;2094885;28;20166;-59
2021/08/06 05:56:07;;;;;;;5.97;5.47;;;;;;;;;;2096674;28;20175;-55
2021/08/06 05:57:17;;;;;;;6.13;5.63;;;;;;;;;;2094645;28;20643;-59
2021/08/06 05:58:18;;;;;;;5.10;4.60;;;;;;;;;;2084747;28;20398;-58
2021/08/06 05:59:18;;;;;;;5.78;5.22;;;;;;;;;;2085882;28;20214;-55
2021/08/06 06:00:19;;;;;;;6.50;5.70;;;;;;;;;;2085388;28;20217;-59
2021/08/06 06:01:28;;;;;;;6.13;5.57;;;;;;;;;;2094192;28;20555;-59
2021/08/06 06:02:43;;;;;;;5.13;4.82;;;;;;;;;;2089165;28;20266;-58
2021/08/06 06:04:03;;;;;;;5.93;5.43;;;;;;;;;;2094445;28;20171;-56
2021/08/06 06:05:30;;;;;;;6.78;6.10;;;;;;;;;;2097322;28;20202;-57
2021/08/06 06:06:33;;;;;;;6.38;5.88;;;;;;;;;;2089154;28;20678;-54
2021/08/06 06:07:44;;;;;;;6.93;5.88;;;;;;;;;;2087863;28;20190;-58
2021/08/06 06:08:44;;;;;;;5.68;5.18;;;;;;;;;;2087822;28;20180;-59
2021/08/06 06:09:45;;;;;;;5.40;4.97;;;;;;;;;;2086258;28;20179;-58
2021/08/06 06:10:45;;;;;;;5.80;5.40;;;;;;;;;;2085840;28;20184;-57
2021/08/06 06:11:45;;;;;;;6.13;5.70;;;;;;;;;;2080720;28;20179;-54
2021/08/06 06:12:46;;;;;;;6.10;5.45;;;;;;;;;;2089276;28;20183;-59